createdAt,value
2022-08-08T00:01:16.991Z,10.48
2022-08-08T00:03:56.025Z,13.27
2022-08-08T00:06:39.290Z,10.60
2022-08-08T00:09:15.938Z,11.30
2022-08-08T00:12:09.314Z,9.48
2022-08-08T00:14:59.846Z,13.57
2022-08-08T00:18:02.200Z,10.35
2022-08-08T00:20:37.394Z,10.68
2022-08-08T00:23:09.286Z,9.15
2022-08-08T00:25:46.616Z,8.82
2022-08-08T00:28:35.211Z,9.43
2022-08-08T00:32:21.292Z,12.40
2022-08-08T00:34:20.485Z,9.57
2022-08-08T00:37:03.588Z,9.10
2022-08-08T00:41:06.864Z,8.95
2022-08-08T00:43:06.030Z,10.05
2022-08-08T00:46:02.226Z,9.85
2022-08-08T00:49:03.548Z,12.13
2022-08-08T00:52:05.494Z,9.40
2022-08-08T00:55:17.920Z,10.55
2022-08-08T00:58:30.682Z,11.60
2022-08-08T01:01:15.916Z,15.00
2022-08-08T01:04:36.788Z,14.63
2022-08-08T01:07:57.449Z,11.73
2022-08-08T01:11:09.715Z,14.68
2022-08-08T01:14:13.643Z,11.10
2022-08-08T01:17:52.081Z,13.52
2022-08-08T01:20:44.297Z,12.25
2022-08-08T01:24:05.509Z,12.27
2022-08-08T01:26:51.990Z,12.35
2022-08-08T01:30:03.317Z,13.85
2022-08-08T01:33:24.009Z,13.73
2022-08-08T01:36:37.728Z,13.55
2022-08-08T01:39:23.380Z,11.93
2022-08-08T01:41:59.027Z,13.20
2022-08-08T01:44:43.702Z,13.15
2022-08-08T01:48:03.653Z,12.90
2022-08-08T01:50:35.841Z,12.45
2022-08-08T01:54:33.535Z,12.27
2022-08-08T01:56:28.503Z,12.80
2022-08-08T01:59:19.990Z,12.07
2022-08-08T02:02:09.320Z,12.55
2022-08-08T02:04:50.948Z,15.40
2022-08-08T02:07:26.506Z,15.50
2022-08-08T02:10:37.168Z,12.20
2022-08-08T02:13:53.924Z,12.05
2022-08-08T02:16:20.927Z,12.75
2022-08-08T02:18:58.733Z,13.55
2022-08-08T02:21:50.716Z,11.27
2022-08-08T02:24:22.861Z,11.30
2022-08-08T02:27:01.251Z,11.13
2022-08-08T02:29:53.150Z,12.82
2022-08-08T02:33:00.431Z,13.45
2022-08-08T02:36:04.598Z,11.32
2022-08-08T02:38:48.969Z,12.07
2022-08-08T02:42:04.152Z,13.95
2022-08-08T02:45:09.631Z,10.60
2022-08-08T02:48:17.162Z,13.75
2022-08-08T02:51:46.426Z,15.25
2022-08-08T02:54:54.351Z,10.73
2022-08-08T02:58:10.447Z,11.38
2022-08-08T03:01:15.351Z,11.70
2022-08-08T03:05:04.547Z,12.40
2022-08-08T03:07:57.951Z,11.93
2022-08-08T03:10:54.245Z,11.90
2022-08-08T03:16:00.295Z,12.63
2022-08-08T03:16:55.143Z,17.73
2022-08-08T03:20:04.576Z,24.55
2022-08-08T03:22:46.567Z,18.67
2022-08-08T03:25:18.660Z,15.25
2022-08-08T03:27:56.432Z,13.43
2022-08-08T03:30:25.776Z,18.75
2022-08-08T03:33:55.355Z,18.23
2022-08-08T03:36:00.985Z,16.65
2022-08-08T03:38:56.393Z,15.43
2022-08-08T03:42:11.392Z,14.00
2022-08-08T03:44:10.571Z,11.68
2022-08-08T03:46:50.593Z,13.27
2022-08-08T03:49:58.928Z,14.77
2022-08-08T03:52:12.808Z,12.23
2022-08-08T03:55:01.966Z,12.38
2022-08-08T03:58:34.445Z,12.65
2022-08-08T04:00:22.233Z,14.13
2022-08-08T04:03:00.958Z,12.82
2022-08-08T04:05:30.974Z,12.90
2022-08-08T04:08:01.414Z,15.82
2022-08-08T04:10:32.797Z,17.95
2022-08-08T04:13:03.723Z,15.07
2022-08-08T04:16:04.142Z,16.60
2022-08-08T04:18:41.925Z,13.43
2022-08-08T04:21:13.555Z,13.15
2022-08-08T04:24:11.666Z,17.20
2022-08-08T04:26:56.858Z,14.80
2022-08-08T04:29:26.061Z,11.57
2022-08-08T04:31:59.292Z,14.95
2022-08-08T04:34:32.003Z,12.95
2022-08-08T04:37:03.904Z,15.32
2022-08-08T04:40:03.959Z,13.55
2022-08-08T04:42:22.030Z,10.90
2022-08-08T04:44:52.796Z,15.57
2022-08-08T04:47:21.084Z,10.32
2022-08-08T04:50:01.638Z,12.23
2022-08-08T04:52:33.804Z,12.88
2022-08-08T04:55:02.580Z,10.63
2022-08-08T04:57:34.517Z,10.35
2022-08-08T05:00:02.866Z,15.07
2022-08-08T05:02:31.689Z,9.60
2022-08-08T05:05:00.687Z,9.63
2022-08-08T05:07:37.810Z,13.90
2022-08-08T05:10:12.940Z,11.27
2022-08-08T05:13:00.292Z,10.63
2022-08-08T05:16:48.355Z,12.70
2022-08-08T05:18:18.736Z,13.13
2022-08-08T05:20:52.117Z,11.95
2022-08-08T05:23:21.704Z,11.98
2022-08-08T05:25:50.136Z,12.65
2022-08-08T05:28:55.837Z,11.25
2022-08-08T05:31:08.813Z,14.32
2022-08-08T05:33:56.213Z,10.52
2022-08-08T05:36:27.947Z,9.70
2022-08-08T05:38:59.406Z,9.48
2022-08-08T05:41:27.883Z,11.05
2022-08-08T05:44:13.077Z,13.05
2022-08-08T05:46:43.100Z,9.23
2022-08-08T05:49:17.664Z,12.20
2022-08-08T05:51:49.653Z,10.13
2022-08-08T05:54:28.803Z,9.60
2022-08-08T05:57:59.519Z,8.73
2022-08-08T06:00:23.373Z,8.85
2022-08-08T06:03:17.717Z,10.07
2022-08-08T06:05:56.583Z,10.75
2022-08-08T06:08:34.957Z,9.88
2022-08-08T06:11:05.049Z,9.15
2022-08-08T06:13:36.080Z,9.38
2022-08-08T06:16:16.783Z,9.65
2022-08-08T06:18:50.225Z,9.57
2022-08-08T06:21:32.541Z,9.60
2022-08-08T06:24:22.884Z,10.35
2022-08-08T06:27:04.246Z,12.60
2022-08-08T06:29:49.497Z,9.38
2022-08-08T06:32:32.838Z,8.00
2022-08-08T06:36:01.053Z,9.48
2022-08-08T06:37:59.274Z,7.68
2022-08-08T06:40:32.156Z,6.40
2022-08-08T06:43:05.701Z,14.93
2022-08-08T06:45:36.516Z,8.60
2022-08-08T06:48:08.606Z,7.55
2022-08-08T06:50:39.533Z,8.73
2022-08-08T06:53:14.105Z,6.97
2022-08-08T06:56:01.920Z,8.38
2022-08-08T06:58:33.245Z,11.45
2022-08-08T07:01:52.362Z,6.75
2022-08-08T07:04:40.188Z,9.90
2022-08-08T07:06:52.525Z,6.88
2022-08-08T07:09:22.087Z,7.90
2022-08-08T07:11:59.198Z,11.32
2022-08-08T07:14:35.932Z,10.90
2022-08-08T07:17:09.588Z,8.23
2022-08-08T07:19:59.711Z,11.07
2022-08-08T07:22:39.603Z,7.28
2022-08-08T07:25:11.042Z,15.65
2022-08-08T07:28:02.231Z,12.52
2022-08-08T07:30:36.141Z,9.73
2022-08-08T07:33:05.646Z,6.50
2022-08-08T07:35:40.544Z,7.80
2022-08-08T07:38:20.643Z,8.52
2022-08-08T07:40:50.782Z,6.97
2022-08-08T07:43:23.193Z,10.02
2022-08-08T07:46:23.503Z,7.15
2022-08-08T07:48:53.712Z,6.43
2022-08-08T07:51:44.632Z,9.57
2022-08-08T07:54:27.050Z,5.00
2022-08-08T07:57:04.301Z,7.88
2022-08-08T07:59:48.998Z,10.25
2022-08-08T08:02:33.553Z,12.43
2022-08-08T08:05:15.135Z,8.45
2022-08-08T08:07:53.049Z,17.20
2022-08-08T08:10:30.176Z,10.13
2022-08-08T08:13:25.790Z,10.18
2022-08-08T08:16:11.468Z,6.03
2022-08-08T08:18:55.712Z,5.43
2022-08-08T08:21:44.324Z,6.05
2022-08-08T08:24:19.004Z,6.78
2022-08-08T08:26:52.691Z,6.93
2022-08-08T08:29:24.368Z,8.50
2022-08-08T08:31:58.396Z,4.68
2022-08-08T08:34:32.266Z,8.40
2022-08-08T08:37:08.169Z,11.00
2022-08-08T08:39:59.851Z,5.00
2022-08-08T08:42:29.392Z,5.13
2022-08-08T08:45:16.466Z,6.13
2022-08-08T08:47:54.713Z,12.27
2022-08-08T08:50:33.799Z,5.53
2022-08-08T08:53:28.370Z,5.25
2022-08-08T08:55:56.041Z,4.05
2022-08-08T08:58:34.007Z,3.95
2022-08-08T09:01:08.290Z,5.45
2022-08-08T09:03:46.831Z,8.13
2022-08-08T09:06:28.252Z,7.53
2022-08-08T09:09:04.410Z,11.82
2022-08-08T09:11:47.776Z,4.55
2022-08-08T09:14:26.450Z,15.75
2022-08-08T09:16:57.057Z,9.10
2022-08-08T09:21:56.667Z,10.00
2022-08-08T09:22:25.991Z,4.97
2022-08-08T09:24:58.480Z,6.30
2022-08-08T09:27:56.495Z,4.90
2022-08-08T09:30:20.168Z,5.00
2022-08-08T09:33:13.147Z,3.88
2022-08-08T09:35:49.955Z,9.52
2022-08-08T09:38:33.622Z,8.18
2022-08-08T09:41:06.775Z,7.10
2022-08-08T09:44:06.523Z,9.52
2022-08-08T09:46:38.724Z,8.23
2022-08-08T09:49:40.929Z,4.20
2022-08-08T09:52:06.553Z,4.93
2022-08-08T09:54:44.149Z,8.40
2022-08-08T09:57:19.012Z,5.13
2022-08-08T10:00:28.887Z,6.60
2022-08-08T10:02:45.117Z,6.65
2022-08-08T10:05:22.694Z,16.60
2022-08-08T10:07:59.730Z,6.70
2022-08-08T10:10:31.821Z,10.07
2022-08-08T10:13:13.959Z,7.95
2022-08-08T10:16:00.240Z,3.53
2022-08-08T10:18:30.855Z,9.20
2022-08-08T10:21:22.449Z,5.32
2022-08-08T10:23:58.314Z,3.33
2022-08-08T10:26:58.564Z,7.63
2022-08-08T10:29:28.229Z,5.65
2022-08-08T10:32:27.489Z,5.03
2022-08-08T10:35:01.377Z,5.32
2022-08-08T10:37:31.822Z,6.00
2022-08-08T10:40:16.883Z,5.40
2022-08-08T10:42:46.263Z,5.28
2022-08-08T10:45:16.800Z,8.68
2022-08-08T10:47:55.596Z,4.45
2022-08-08T10:50:33.412Z,3.70
2022-08-08T10:53:07.744Z,3.85
2022-08-08T10:55:45.695Z,8.27
2022-08-08T10:58:15.590Z,6.75
2022-08-08T11:00:48.557Z,5.72
2022-08-08T11:03:36.315Z,14.05
2022-08-08T11:06:12.603Z,6.20
2022-08-08T11:08:46.262Z,4.72
2022-08-08T11:11:59.994Z,4.55
2022-08-08T11:14:12.430Z,6.05
2022-08-08T11:16:47.137Z,3.75
2022-08-08T11:19:18.158Z,6.88
2022-08-08T11:21:54.270Z,3.75
2022-08-08T11:24:26.850Z,4.93
2022-08-08T11:26:59.180Z,3.38
2022-08-08T11:29:50.730Z,7.68
2022-08-08T11:32:22.252Z,5.93
2022-08-08T11:35:23.515Z,5.50
2022-08-08T11:38:35.828Z,4.78
2022-08-08T11:40:46.399Z,3.35
2022-08-08T11:43:21.691Z,3.28
2022-08-08T11:46:09.949Z,10.98
2022-08-08T11:48:44.966Z,8.80
2022-08-08T11:51:38.113Z,7.53
2022-08-08T11:54:09.707Z,6.75
2022-08-08T11:56:55.958Z,7.05
2022-08-08T11:59:57.667Z,7.05
2022-08-08T12:02:32.222Z,5.65
2022-08-08T12:05:06.793Z,5.20
2022-08-08T12:07:49.719Z,8.80
2022-08-08T12:10:21.871Z,9.48
2022-08-08T12:12:54.668Z,4.95
2022-08-08T12:15:28.453Z,5.72
2022-08-08T12:17:56.728Z,5.00
2022-08-08T12:20:25.816Z,7.90
2022-08-08T12:22:57.110Z,5.45
2022-08-08T12:25:31.177Z,9.18
2022-08-08T12:28:15.503Z,6.18
2022-08-08T12:30:48.202Z,5.78
2022-08-08T12:33:20.229Z,11.35
2022-08-08T12:35:52.934Z,5.45
2022-08-08T12:38:30.446Z,8.13
2022-08-08T12:41:05.766Z,6.28
2022-08-08T12:44:00.533Z,6.60
2022-08-08T12:46:29.726Z,5.63
2022-08-08T12:49:21.971Z,7.80
2022-08-08T12:51:59.221Z,7.00
2022-08-08T12:54:33.263Z,4.78
2022-08-08T12:57:17.163Z,9.48
2022-08-08T13:00:05.365Z,4.85
2022-08-08T13:02:51.811Z,4.25
2022-08-08T13:05:27.033Z,6.43
2022-08-08T13:08:20.600Z,7.13
2022-08-08T13:10:56.912Z,4.05
2022-08-08T13:13:34.744Z,7.53
2022-08-08T13:16:18.917Z,8.52
2022-08-08T13:18:58.299Z,6.43
2022-08-08T13:21:48.729Z,6.63
2022-08-08T13:24:39.519Z,5.65
2022-08-08T13:27:13.670Z,4.93
2022-08-08T13:29:51.289Z,6.65
2022-08-08T13:32:23.558Z,2.92
2022-08-08T13:34:56.583Z,3.60
2022-08-08T13:37:27.874Z,4.90
2022-08-08T13:40:27.215Z,7.07
2022-08-08T13:42:58.377Z,5.45
2022-08-08T13:45:27.093Z,4.03
2022-08-08T13:47:59.185Z,6.53
2022-08-08T13:50:36.532Z,4.30
2022-08-08T13:53:24.366Z,5.38
2022-08-08T13:56:02.033Z,10.95
2022-08-08T13:58:33.275Z,4.97
2022-08-08T14:01:13.726Z,4.13
2022-08-08T14:03:54.996Z,5.43
2022-08-08T14:06:32.913Z,3.35
2022-08-08T14:09:25.441Z,4.63
2022-08-08T14:11:51.687Z,3.72
2022-08-08T14:14:26.280Z,9.73
2022-08-08T14:16:57.288Z,3.95
2022-08-08T14:19:57.676Z,5.95
2022-08-08T14:22:24.337Z,6.43
2022-08-08T14:24:59.778Z,6.22
2022-08-08T14:27:34.044Z,7.80
2022-08-08T14:30:18.475Z,4.07
2022-08-08T14:32:52.844Z,5.43
2022-08-08T14:35:23.321Z,7.43
2022-08-08T14:38:00.347Z,5.22
2022-08-08T14:40:32.751Z,5.03
2022-08-08T14:43:01.819Z,5.82
2022-08-08T14:46:03.351Z,5.63
2022-08-08T14:48:41.841Z,7.68
2022-08-08T14:51:23.524Z,11.95
2022-08-08T14:53:55.193Z,6.88
2022-08-08T14:56:25.482Z,3.95
2022-08-08T14:58:54.805Z,6.80
2022-08-08T15:01:37.222Z,3.70
2022-08-08T15:04:10.493Z,5.70
2022-08-08T15:06:38.933Z,4.10
2022-08-08T15:09:07.813Z,4.85
2022-08-08T15:11:43.326Z,5.68
2022-08-08T15:14:15.101Z,5.75
2022-08-08T15:16:45.274Z,6.20
2022-08-08T15:19:15.600Z,3.65
2022-08-08T15:21:44.811Z,5.63
2022-08-08T15:24:16.193Z,4.13
2022-08-08T15:26:52.247Z,9.70
2022-08-08T15:29:22.631Z,4.78
2022-08-08T15:32:18.062Z,6.10
2022-08-08T15:34:42.553Z,6.45
2022-08-08T15:37:10.973Z,4.05
2022-08-08T15:39:41.428Z,4.82
2022-08-08T15:42:13.086Z,3.85
2022-08-08T15:44:43.101Z,6.00
2022-08-08T15:47:15.753Z,5.60
2022-08-08T15:49:48.926Z,5.30
2022-08-08T15:52:40.360Z,4.03
2022-08-08T15:55:11.549Z,4.18
2022-08-08T15:57:40.806Z,4.93
2022-08-08T16:00:27.238Z,3.92
2022-08-08T16:02:59.345Z,4.85
2022-08-08T16:05:35.884Z,5.20
2022-08-08T16:08:20.207Z,5.63
2022-08-08T16:13:03.838Z,4.60
2022-08-08T16:13:45.166Z,4.55
2022-08-08T16:16:17.882Z,5.15
2022-08-08T16:18:53.122Z,3.90
2022-08-08T16:21:29.002Z,7.60
2022-08-08T16:23:57.690Z,5.72
2022-08-08T16:26:33.942Z,8.15
2022-08-08T16:29:09.242Z,7.00
2022-08-08T16:31:40.923Z,5.45
2022-08-08T16:34:11.263Z,4.97
2022-08-08T16:36:49.498Z,9.18
2022-08-08T16:40:01.399Z,5.93
2022-08-08T16:42:18.334Z,8.98
2022-08-08T16:44:54.877Z,17.83
2022-08-08T16:47:39.971Z,6.80
2022-08-08T16:50:15.318Z,8.25
2022-08-08T16:55:02.587Z,6.32
2022-08-08T16:55:53.637Z,3.10
2022-08-08T16:58:25.591Z,4.68
2022-08-08T17:00:58.872Z,9.35
2022-08-08T17:03:58.342Z,3.63
2022-08-08T17:06:37.374Z,5.18
2022-08-08T17:09:06.029Z,4.97
2022-08-08T17:11:48.042Z,4.43
2022-08-08T17:14:18.723Z,5.07
2022-08-08T17:16:51.720Z,3.95
2022-08-08T17:19:26.415Z,5.28
2022-08-08T17:21:56.779Z,7.68
2022-08-08T17:24:29.888Z,7.22
2022-08-08T17:26:59.454Z,6.00
2022-08-08T17:29:27.803Z,6.53
2022-08-08T17:31:57.379Z,4.20
2022-08-08T17:34:53.569Z,6.32
2022-08-08T17:37:16.300Z,3.38
2022-08-08T17:40:10.946Z,6.05
2022-08-08T17:42:37.010Z,5.65
2022-08-08T17:45:06.716Z,6.28
2022-08-08T17:47:42.845Z,7.18
2022-08-08T17:50:18.938Z,7.00
2022-08-08T17:52:48.481Z,3.80
2022-08-08T17:56:03.942Z,6.50
2022-08-08T17:58:05.714Z,5.25
2022-08-08T18:00:41.341Z,9.30
2022-08-08T18:03:13.176Z,8.35
2022-08-08T18:05:48.719Z,7.43
2022-08-08T18:08:25.131Z,8.80
2022-08-08T18:11:08.391Z,8.75
2022-08-08T18:13:41.364Z,7.18
2022-08-08T18:16:10.311Z,6.00
2022-08-08T18:18:42.656Z,7.40
2022-08-08T18:21:24.863Z,6.15
2022-08-08T18:24:03.387Z,9.07
2022-08-08T18:26:31.566Z,4.50
2022-08-08T18:29:01.851Z,5.40
2022-08-08T18:31:30.151Z,4.72
2022-08-08T18:34:12.180Z,5.68
2022-08-08T18:36:47.793Z,7.00
2022-08-08T18:39:28.348Z,10.07
2022-08-08T18:41:59.940Z,7.65
2022-08-08T18:44:32.986Z,8.38
2022-08-08T18:47:05.112Z,4.07
2022-08-08T18:49:57.767Z,4.93
2022-08-08T18:52:23.352Z,6.78
2022-08-08T18:55:00.699Z,6.30
2022-08-08T18:57:41.631Z,7.05
2022-08-08T19:00:16.525Z,6.75
2022-08-08T19:02:56.188Z,5.32
2022-08-08T19:05:34.343Z,7.10
2022-08-08T19:08:10.348Z,10.27
2022-08-08T19:10:55.728Z,7.93
2022-08-08T19:13:25.223Z,5.90
2022-08-08T19:15:55.945Z,6.57
2022-08-08T19:18:32.522Z,5.53
2022-08-08T19:21:29.602Z,6.47
2022-08-08T19:23:59.664Z,6.63
2022-08-08T19:26:31.214Z,6.80
2022-08-08T19:29:00.171Z,5.40
2022-08-08T19:31:31.258Z,8.80
2022-08-08T19:34:35.491Z,7.07
2022-08-08T19:36:53.549Z,7.07
2022-08-08T19:39:23.786Z,9.13
2022-08-08T19:41:53.289Z,7.80
2022-08-08T19:44:43.223Z,8.98
2022-08-08T19:47:09.889Z,7.38
2022-08-08T19:49:43.469Z,7.28
2022-08-08T19:52:34.432Z,6.32
2022-08-08T19:55:05.089Z,8.27
2022-08-08T19:57:37.775Z,9.00
2022-08-08T20:00:11.546Z,9.65
2022-08-08T20:02:57.045Z,9.73
2022-08-08T20:06:15.137Z,7.93
2022-08-08T20:08:29.193Z,13.60
2022-08-08T20:11:00.050Z,7.80
2022-08-08T20:14:33.568Z,10.45
2022-08-08T20:16:19.621Z,5.55
2022-08-08T20:18:52.643Z,6.15
2022-08-08T20:21:25.387Z,5.60
2022-08-08T20:23:57.634Z,7.82
2022-08-08T20:26:33.275Z,11.65
2022-08-08T20:29:04.307Z,6.13
2022-08-08T20:32:02.919Z,9.10
2022-08-08T20:34:30.573Z,7.63
2022-08-08T20:37:00.932Z,8.65
2022-08-08T20:39:39.173Z,6.85
2022-08-08T20:42:20.412Z,6.07
2022-08-08T20:44:58.685Z,7.28
2022-08-08T20:47:26.911Z,7.80
2022-08-08T20:50:05.570Z,8.38
2022-08-08T20:52:33.758Z,4.47
2022-08-08T20:55:02.197Z,11.07
2022-08-08T20:57:47.741Z,6.03
2022-08-08T21:00:21.007Z,6.85
2022-08-08T21:02:52.825Z,7.10
2022-08-08T21:05:21.630Z,8.77
2022-08-08T21:08:07.806Z,6.00
2022-08-08T21:10:41.189Z,6.97
2022-08-08T21:13:09.978Z,8.18
2022-08-08T21:16:06.319Z,8.50
2022-08-08T21:18:28.078Z,10.38
2022-08-08T21:20:56.603Z,11.02
2022-08-08T21:23:58.570Z,8.23
2022-08-08T21:26:13.509Z,6.70
2022-08-08T21:28:55.834Z,9.20
2022-08-08T21:31:58.516Z,9.07
2022-08-08T21:34:18.971Z,10.52
2022-08-08T21:36:49.302Z,6.95
2022-08-08T21:39:17.903Z,8.02
2022-08-08T21:41:51.166Z,9.35
2022-08-08T21:44:21.893Z,7.95
2022-08-08T21:48:04.936Z,5.97
2022-08-08T21:49:39.553Z,9.07
2022-08-08T21:54:34.185Z,7.25
2022-08-08T21:55:04.202Z,13.23
2022-08-08T21:57:42.950Z,6.88
2022-08-08T22:00:26.003Z,9.68
2022-08-08T22:02:55.860Z,7.50
2022-08-08T22:05:23.998Z,8.75
2022-08-08T22:07:52.063Z,7.95
2022-08-08T22:10:31.953Z,7.40
2022-08-08T22:13:18.659Z,8.50
2022-08-08T22:15:59.565Z,9.02
2022-08-08T22:18:33.847Z,7.88
2022-08-08T22:21:10.757Z,9.57
2022-08-08T22:23:49.460Z,6.50
2022-08-08T22:26:28.754Z,6.28
2022-08-08T22:29:14.893Z,7.43
2022-08-08T22:31:58.666Z,7.53
2022-08-08T22:34:33.020Z,9.23
2022-08-08T22:37:14.879Z,9.32
2022-08-08T22:40:01.136Z,7.30
2022-08-08T22:42:34.319Z,8.50
2022-08-08T22:45:03.415Z,8.93
2022-08-08T22:47:38.401Z,8.15
2022-08-08T22:50:26.211Z,6.53
2022-08-08T22:53:22.477Z,8.90
2022-08-08T22:55:59.265Z,9.68
2022-08-08T22:58:31.159Z,6.00
2022-08-08T23:01:00.994Z,7.30
2022-08-08T23:03:52.936Z,8.30
2022-08-08T23:06:19.302Z,8.57
2022-08-08T23:08:55.611Z,7.53
2022-08-08T23:11:31.114Z,6.47
2022-08-08T23:14:17.487Z,5.13
2022-08-08T23:16:57.609Z,7.15
2022-08-08T23:19:31.034Z,4.78
2022-08-08T23:22:04.225Z,7.97
2022-08-08T23:24:36.122Z,6.07
2022-08-08T23:27:06.392Z,7.25
2022-08-08T23:29:34.558Z,6.00
2022-08-08T23:32:04.755Z,8.05
2022-08-08T23:34:34.263Z,4.57
2022-08-08T23:37:04.699Z,10.18
2022-08-08T23:39:42.114Z,12.07
2022-08-08T23:42:21.389Z,4.80
2022-08-08T23:44:50.019Z,7.28
2022-08-08T23:48:59.777Z,4.30
2022-08-08T23:50:29.817Z,5.35
2022-08-08T23:53:03.501Z,8.07
2022-08-08T23:55:33.723Z,9.65
2022-08-08T23:58:32.147Z,12.48
